Airfield :
LOGIN :

Register | Disclaimer

   EN    FR    IT 

 










Legend :    VFR   Marginal VFR   IFR   Intensive IFR   Very Intensive IFR
Visi :
Ceiling :
>= 8 km
>= 3000ft
5 to 8 km
1000 to 3000 ft
1500m to 5 km
500 to 1000 ft
800 to 1500m
200 to 500 ft
< 800m
< 200 ft
Symbols :   Thunderstorms  Fog  Heavy snow  Heavy precipitations  Wind > 20 kt
SIGMETs :     Misc.  Thunderstorms  Icing  Turbulence  Mountain Waves  Volcanic Ashes







- Airport Elevation : 913 ft
- Download approach charts


LFSX - Luxeuil

CURRENT METAR :
  • 220030Z AUTO 21010KT CAVOK 11/08 Q1020

EXPIRED METARs :
  • 220000Z AUTO 21012KT CAVOK 11/09 Q1020
  • 212330Z AUTO 20011KT 9999 FEW041 BKN062 BKN110 11/09 Q1020
  • 212300Z AUTO 20010KT 9999 FEW037 BKN130 11/09 Q1020
  • 212230Z AUTO 20008KT CAVOK 11/09 Q1020
  • 212200Z AUTO 21011KT 9999 FEW035/// SCT060/// OVC130/// ///TCU 11/09 Q1020

TAF TAF LFSX
Valid from the 21 at 04:00 until the 22 at 03:00 UTC


210400Z 2104/2203 VRB03KT 9999 BKN035
TEMPO 2115/2124 3000 RA BKN010
No reported NOTAMs for that airfield.



MET'MAP, your aeronautical weather chart ! - Copyright ORBIFLY December 2007 - Disclaimer

ORBIFLY MET'MAP TEAM :

Programming & Development : Alexandra Zaïnal
Concept & Development : Baudouin d'Aumeries
Co-Development & Prog : Marc-Olivier Méhu
Technical & hardware support : Manuel Goepfert

Contact : metmap@orbifly.com




SOURCES & CREDITS :

   NOAA